Aviation Digital Data Service (ADDS)

Output produced by METARs form (0004 UTC 24 May 2022)
found at http://www.aviationweather.gov/metar/data/
 
WSAP 240000Z 08002KT 7000 FEW016 BKN300 27/24 Q1009
TAF WSAP 232300Z 2400/2506 19007KT 9999 FEW015 SCT020 
     TEMPO 2407/2410 3000 TSRA FEW012CB BKN015
       
WSSL 240000Z VRB01KT 9999 FEW018 BKN300 27/24 Q1009
TAF WSSL 232300Z 2400/2506 19007KT 9999 FEW015 SCT020 
     TEMPO 2407/2410 3000 TSRA FEW012CB BKN015
       
WSSS 240000Z 35003KT 9999 FEW016 BKN300 28/25 Q1009 NOSIG
TAF WSSS 232300Z 2400/2506 19007KT 9999 FEW015 SCT020 
     TEMPO 2407/2410 3000 TSRA FEW012CB BKN015